Time,TemperatureF,DewpointF,PressureIn,WindDirection,WindDirectionDegrees,WindSpeedMPH,WindSpeedGustMPH,Humidity,HourlyPrecipIn,Conditions,Clouds,dailyrainin,SoftwareType,DateUTC
2013-11-06 00:01:00,40.3,37.9,30.53,WNW,294,0.0,0.0,91,0.00,,,0.00,meteohub,2013-11-06 05:01:00,
2013-11-06 00:02:00,40.3,37.9,30.53,WNW,294,0.0,0.0,91,0.00,,,0.00,meteohub,2013-11-06 05:02:00,
2013-11-06 00:07:00,40.3,37.6,30.53,WNW,294,0.0,0.0,90,0.00,,,0.00,meteohub,2013-11-06 05:07:00,
2013-11-06 00:12:00,40.3,37.6,30.52,WNW,294,0.0,0.0,90,0.00,,,0.00,meteohub,2013-11-06 05:12:00,
2013-11-06 00:17:00,40.1,37.4,30.52,WNW,294,0.0,0.0,90,0.00,,,0.00,meteohub,2013-11-06 05:17:00,
2013-11-06 00:22:00,39.9,37.2,30.52,WNW,294,0.0,0.0,90,0.00,,,0.00,meteohub,2013-11-06 05:22:00,
2013-11-06 00:27:00,39.9,37.2,30.52,WNW,294,0.0,0.0,90,0.00,,,0.00,meteohub,2013-11-06 05:27:00,
2013-11-06 00:33:00,39.7,37.0,30.52,WNW,294,0.0,0.0,90,0.00,,,0.00,meteohub,2013-11-06 05:33:00,
2013-11-06 00:38:00,39.6,36.9,30.51,WNW,294,0.0,0.0,90,0.00,,,0.00,meteohub,2013-11-06 05:38:00,
2013-11-06 00:43:00,39.4,36.7,30.51,WNW,294,0.0,0.0,90,0.00,,,0.00,meteohub,2013-11-06 05:43:00,
2013-11-06 00:48:00,39.4,37.0,30.50,WNW,294,0.0,0.0,91,0.00,,,0.00,meteohub,2013-11-06 05:48:00,
2013-11-06 00:53:00,39.4,37.0,30.51,WNW,294,0.0,0.0,91,0.00,,,0.00,meteohub,2013-11-06 05:53:00,
2013-11-06 00:59:00,39.2,36.9,30.51,WNW,294,0.0,0.0,91,0.00,,,0.00,meteohub,2013-11-06 05:59:00,
2013-11-06 01:04:00,39.2,36.9,30.51,WNW,294,0.0,0.0,91,0.00,,,0.00,meteohub,2013-11-06 06:04:00,
2013-11-06 01:09:00,39.0,36.7,30.50,WNW,294,0.0,0.0,91,0.00,,,0.00,meteohub,2013-11-06 06:09:00,
2013-11-06 01:14:00,39.0,36.9,30.51,WNW,294,0.0,0.0,92,0.00,,,0.00,meteohub,2013-11-06 06:14:00,
2013-11-06 01:19:00,39.0,36.9,30.51,WNW,294,0.0,0.0,92,0.00,,,0.00,meteohub,2013-11-06 06:19:00,
2013-11-06 01:24:00,39.0,36.9,30.51,WNW,294,0.0,0.0,92,0.00,,,0.00,meteohub,2013-11-06 06:24:00,
2013-11-06 01:30:00,39.2,37.4,30.51,WNW,294,0.0,0.0,93,0.00,,,0.00,meteohub,2013-11-06 06:30:00,
2013-11-06 01:35:00,39.2,37.4,30.51,WNW,294,0.0,0.0,93,0.00,,,0.00,meteohub,2013-11-06 06:35:00,
2013-11-06 01:40:00,39.2,37.4,30.51,WNW,294,0.0,0.0,93,0.00,,,0.00,meteohub,2013-11-06 06:40:00,
2013-11-06 01:45:00,39.4,37.6,30.50,WNW,294,0.0,0.0,93,0.00,,,0.00,meteohub,2013-11-06 06:45:00,
2013-11-06 01:50:00,39.4,37.2,30.50,WNW,294,0.0,0.0,92,0.00,,,0.00,meteohub,2013-11-06 06:50:00,
2013-11-06 01:56:00,39.4,37.2,30.49,WNW,294,0.0,0.0,92,0.00,,,0.00,meteohub,2013-11-06 06:56:00,
2013-11-06 02:01:00,39.4,37.6,30.49,WNW,294,0.0,0.0,93,0.00,,,0.00,meteohub,2013-11-06 07:01:00,
2013-11-06 02:06:00,39.4,37.6,30.49,WNW,294,0.0,0.0,93,0.00,,,0.00,meteohub,2013-11-06 07:06:00,
2013-11-06 02:11:00,39.6,37.8,30.49,WNW,294,0.0,0.0,93,0.00,,,0.00,meteohub,2013-11-06 07:11:00,
2013-11-06 02:16:00,39.7,37.9,30.49,WNW,294,0.0,0.0,93,0.00,,,0.00,meteohub,2013-11-06 07:16:00,
2013-11-06 02:21:00,39.7,37.9,30.49,WNW,294,0.0,0.0,93,0.00,,,0.00,meteohub,2013-11-06 07:21:00,
2013-11-06 02:27:00,39.7,37.9,30.49,WNW,294,0.0,0.0,93,0.00,,,0.00,meteohub,2013-11-06 07:27:00,
2013-11-06 02:32:00,39.7,37.9,30.49,WNW,294,0.0,0.0,93,0.00,,,0.00,meteohub,2013-11-06 07:32:00,
2013-11-06 02:37:00,39.6,37.4,30.49,WNW,294,0.0,0.0,92,0.00,,,0.00,meteohub,2013-11-06 07:37:00,
2013-11-06 02:42:00,39.6,37.4,30.49,WNW,294,0.0,0.0,92,0.00,,,0.00,meteohub,2013-11-06 07:42:00,
2013-11-06 02:47:00,39.6,37.4,30.49,WNW,294,0.0,0.0,92,0.00,,,0.00,meteohub,2013-11-06 07:47:00,
2013-11-06 02:52:00,39.6,37.4,30.49,WNW,294,0.0,0.0,92,0.00,,,0.00,meteohub,2013-11-06 07:52:00,
2013-11-06 02:57:00,39.6,37.4,30.48,WNW,294,0.0,0.0,92,0.00,,,0.00,meteohub,2013-11-06 07:57:00,
2013-11-06 03:02:00,39.6,37.4,30.48,WNW,294,0.0,0.0,92,0.00,,,0.00,meteohub,2013-11-06 08:02:00,
2013-11-06 03:07:00,39.6,37.4,30.48,WNW,294,0.0,0.0,92,0.00,,,0.00,meteohub,2013-11-06 08:07:00,
2013-11-06 03:12:00,39.4,37.2,30.48,WNW,294,0.0,0.0,92,0.00,,,0.00,meteohub,2013-11-06 08:12:00,
2013-11-06 03:17:00,39.2,37.0,30.48,WNW,294,0.0,0.0,92,0.00,,,0.00,meteohub,2013-11-06 08:17:00,
2013-11-06 03:23:00,38.8,36.7,30.48,WNW,294,0.0,0.0,92,0.00,,,0.00,meteohub,2013-11-06 08:23:00,
2013-11-06 03:28:00,38.7,36.5,30.48,WNW,294,0.0,0.0,92,0.00,,,0.00,meteohub,2013-11-06 08:28:00,
2013-11-06 03:33:00,38.5,36.3,30.48,WNW,294,0.0,0.0,92,0.00,,,0.00,meteohub,2013-11-06 08:33:00,
2013-11-06 03:38:00,38.5,36.3,30.47,WNW,294,0.0,0.0,92,0.00,,,0.00,meteohub,2013-11-06 08:38:00,
2013-11-06 03:43:00,38.1,36.3,30.47,WNW,294,0.0,0.0,93,0.00,,,0.00,meteohub,2013-11-06 08:43:00,
2013-11-06 03:48:00,38.1,36.3,30.47,WNW,294,0.0,0.0,93,0.00,,,0.00,meteohub,2013-11-06 08:48:00,
2013-11-06 03:53:00,37.8,36.0,30.47,WNW,294,0.0,0.0,93,0.00,,,0.00,meteohub,2013-11-06 08:53:00,
2013-11-06 03:59:00,37.6,35.8,30.47,WNW,294,0.0,0.0,93,0.00,,,0.00,meteohub,2013-11-06 08:59:00,
2013-11-06 04:04:00,37.2,35.4,30.47,WNW,294,0.0,0.0,93,0.00,,,0.00,meteohub,2013-11-06 09:04:00,
2013-11-06 04:09:00,37.0,35.2,30.47,WNW,294,0.0,0.0,93,0.00,,,0.00,meteohub,2013-11-06 09:09:00,
2013-11-06 04:14:00,36.9,35.1,30.47,WNW,294,0.0,0.0,93,0.00,,,0.00,meteohub,2013-11-06 09:14:00,
2013-11-06 04:19:00,36.9,35.2,30.47,WNW,294,0.0,0.0,94,0.00,,,0.00,meteohub,2013-11-06 09:19:00,
2013-11-06 04:24:00,36.9,35.2,30.47,WNW,294,0.0,0.0,94,0.00,,,0.00,meteohub,2013-11-06 09:24:00,
2013-11-06 04:29:00,36.7,35.4,30.47,WNW,294,0.0,0.0,95,0.00,,,0.00,meteohub,2013-11-06 09:29:00,
2013-11-06 04:35:00,36.7,35.4,30.47,WNW,294,0.0,0.0,95,0.00,,,0.00,meteohub,2013-11-06 09:35:00,
2013-11-06 04:40:00,36.7,35.4,30.47,WNW,294,0.0,0.0,95,0.00,,,0.00,meteohub,2013-11-06 09:40:00,
2013-11-06 04:45:00,36.7,35.4,30.47,WNW,294,0.0,0.0,95,0.00,,,0.00,meteohub,2013-11-06 09:45:00,
2013-11-06 04:50:00,36.7,35.4,30.47,WNW,294,0.0,0.0,95,0.00,,,0.00,meteohub,2013-11-06 09:50:00,
2013-11-06 04:55:00,36.9,35.6,30.47,WNW,294,0.0,0.0,95,0.00,,,0.00,meteohub,2013-11-06 09:55:00,
2013-11-06 05:00:00,36.9,35.6,30.48,WNW,294,0.0,0.0,95,0.00,,,0.00,meteohub,2013-11-06 10:00:00,
2013-11-06 05:06:00,36.9,35.8,30.47,WNW,294,0.0,0.0,96,0.00,,,0.00,meteohub,2013-11-06 10:06:00,
2013-11-06 05:11:00,37.0,36.0,30.47,WNW,294,0.0,0.0,96,0.00,,,0.00,meteohub,2013-11-06 10:11:00,
2013-11-06 05:16:00,37.4,36.3,30.47,WNW,294,0.0,0.0,96,0.00,,,0.00,meteohub,2013-11-06 10:16:00,
2013-11-06 05:21:00,37.6,36.5,30.47,WNW,294,0.0,0.0,96,0.00,,,0.00,meteohub,2013-11-06 10:21:00,
2013-11-06 05:26:00,37.8,36.7,30.47,WNW,294,0.0,0.0,96,0.00,,,0.00,meteohub,2013-11-06 10:26:00,
2013-11-06 05:31:00,37.8,36.7,30.46,WNW,294,0.0,0.0,96,0.00,,,0.00,meteohub,2013-11-06 10:31:00,
2013-11-06 05:36:00,37.9,36.9,30.46,WNW,294,0.0,0.0,96,0.00,,,0.00,meteohub,2013-11-06 10:36:00,
2013-11-06 05:42:00,37.9,36.9,30.46,WNW,294,0.0,0.0,96,0.00,,,0.00,meteohub,2013-11-06 10:42:00,
2013-11-06 05:47:00,37.9,36.9,30.46,WNW,294,0.0,0.0,96,0.00,,,0.00,meteohub,2013-11-06 10:47:00,
2013-11-06 05:52:00,37.9,36.9,30.46,WNW,294,0.0,0.0,96,0.00,,,0.00,meteohub,2013-11-06 10:52:00,
2013-11-06 05:57:00,37.9,36.9,30.46,WNW,294,0.0,0.0,96,0.00,,,0.00,meteohub,2013-11-06 10:57:00,
2013-11-06 06:02:00,37.9,36.9,30.46,WNW,294,0.0,0.0,96,0.00,,,0.00,meteohub,2013-11-06 11:02:00,
2013-11-06 06:07:00,37.9,36.9,30.46,WNW,294,0.0,0.0,96,0.00,,,0.00,meteohub,2013-11-06 11:07:00,
2013-11-06 06:12:00,37.8,36.7,30.45,WNW,294,0.0,0.0,96,0.00,,,0.00,meteohub,2013-11-06 11:12:00,
2013-11-06 06:17:00,37.8,36.7,30.45,WNW,294,0.0,0.0,96,0.00,,,0.00,meteohub,2013-11-06 11:17:00,
2013-11-06 06:23:00,37.8,36.7,30.45,WNW,294,0.0,0.0,96,0.00,,,0.00,meteohub,2013-11-06 11:23:00,
2013-11-06 06:28:00,37.8,36.7,30.45,WNW,294,0.0,0.0,96,0.00,,,0.00,meteohub,2013-11-06 11:28:00,
2013-11-06 06:33:00,37.6,36.5,30.45,WNW,294,0.0,0.0,96,0.00,,,0.00,meteohub,2013-11-06 11:33:00,
2013-11-06 06:38:00,37.6,36.5,30.45,WNW,294,0.0,0.0,96,0.00,,,0.00,meteohub,2013-11-06 11:38:00,
2013-11-06 06:43:00,37.6,36.5,30.45,WNW,294,0.0,0.0,96,0.00,,,0.00,meteohub,2013-11-06 11:43:00,
2013-11-06 06:48:00,37.4,36.1,30.45,WNW,294,0.0,0.0,95,0.00,,,0.00,meteohub,2013-11-06 11:48:00,
2013-11-06 06:53:00,37.2,36.0,30.45,WNW,294,0.0,0.0,95,0.00,,,0.00,meteohub,2013-11-06 11:53:00,
2013-11-06 06:59:00,37.0,35.8,30.45,WNW,294,0.0,0.0,95,0.00,,,0.00,meteohub,2013-11-06 11:59:00,
2013-11-06 07:04:00,37.0,35.8,30.45,WNW,294,0.0,0.0,95,0.00,,,0.00,meteohub,2013-11-06 12:04:00,
2013-11-06 07:09:00,36.9,35.6,30.45,WNW,294,0.0,0.0,95,0.00,,,0.00,meteohub,2013-11-06 12:09:00,
2013-11-06 07:14:00,36.7,35.4,30.45,WNW,294,0.0,0.0,95,0.00,,,0.00,meteohub,2013-11-06 12:14:00,
2013-11-06 07:19:00,36.7,35.6,30.45,WNW,294,0.0,0.0,96,0.00,,,0.00,meteohub,2013-11-06 12:19:00,
2013-11-06 07:24:00,36.9,35.8,30.45,WNW,294,0.0,0.0,96,0.00,,,0.00,meteohub,2013-11-06 12:24:00,
2013-11-06 07:29:00,37.0,36.0,30.45,WNW,294,0.0,0.0,96,0.00,,,0.00,meteohub,2013-11-06 12:29:00,
2013-11-06 07:35:00,37.6,36.9,30.45,WNW,294,0.0,0.0,97,0.00,,,0.00,meteohub,2013-11-06 12:35:00,
2013-11-06 07:40:00,37.9,37.2,30.45,WNW,294,0.0,0.0,97,0.00,,,0.00,meteohub,2013-11-06 12:40:00,
2013-11-06 07:45:00,38.7,37.9,30.45,WNW,294,0.0,0.0,97,0.00,,,0.00,meteohub,2013-11-06 12:45:00,
2013-11-06 07:50:00,39.4,38.8,30.45,WNW,294,0.0,0.0,98,0.00,,,0.00,meteohub,2013-11-06 12:50:00,
2013-11-06 07:55:00,39.9,39.4,30.44,WNW,294,0.0,0.0,98,0.00,,,0.00,meteohub,2013-11-06 12:55:00,
2013-11-06 08:00:00,40.8,40.3,30.44,WNW,294,0.0,0.0,98,0.00,,,0.00,meteohub,2013-11-06 13:00:00,
2013-11-06 08:05:00,41.7,41.2,30.44,WNW,294,0.0,0.0,98,0.00,,,0.00,meteohub,2013-11-06 13:05:00,
2013-11-06 08:11:00,42.6,42.1,30.44,WNW,294,0.0,0.0,98,0.00,,,0.00,meteohub,2013-11-06 13:11:00,
2013-11-06 08:16:00,43.7,43.0,30.43,WNW,294,0.0,0.0,97,0.00,,,0.00,meteohub,2013-11-06 13:16:00,
2013-11-06 08:21:00,44.6,43.5,30.44,WNW,294,0.0,0.0,96,0.00,,,0.00,meteohub,2013-11-06 13:21:00,
2013-11-06 08:26:00,45.7,44.1,30.43,WNW,294,0.0,0.0,94,0.01,,,0.01,meteohub,2013-11-06 13:26:00,
2013-11-06 08:31:00,46.8,44.8,30.43,WNW,294,0.0,0.0,93,0.01,,,0.01,meteohub,2013-11-06 13:31:00,
2013-11-06 08:36:00,48.0,45.5,30.43,WNW,294,0.0,0.0,91,0.01,,,0.01,meteohub,2013-11-06 13:36:00,
2013-11-06 08:41:00,49.5,46.0,30.43,WNW,294,0.0,0.0,88,0.01,,,0.01,meteohub,2013-11-06 13:41:00,
2013-11-06 08:47:00,51.3,47.3,30.43,WNW,294,0.0,0.0,86,0.01,,,0.01,meteohub,2013-11-06 13:47:00,
2013-11-06 08:52:00,52.5,47.8,30.43,WNW,294,0.0,0.0,84,0.01,,,0.01,meteohub,2013-11-06 13:52:00,
2013-11-06 08:57:00,53.6,47.7,30.43,WNW,294,0.0,0.0,80,0.01,,,0.01,meteohub,2013-11-06 13:57:00,
2013-11-06 09:02:00,54.1,47.8,30.43,WNW,294,0.0,0.0,79,0.01,,,0.01,meteohub,2013-11-06 14:02:00,
2013-11-06 09:07:00,54.7,48.0,30.43,WNW,294,0.0,0.0,78,0.01,,,0.01,meteohub,2013-11-06 14:07:00,
2013-11-06 09:12:00,55.2,48.2,30.42,WNW,294,0.0,0.0,77,0.01,,,0.01,meteohub,2013-11-06 14:12:00,
2013-11-06 09:17:00,55.4,47.7,30.42,WNW,294,0.0,0.0,75,0.01,,,0.01,meteohub,2013-11-06 14:17:00,
2013-11-06 09:22:00,55.4,47.7,30.42,WNW,294,0.0,0.0,75,0.01,,,0.01,meteohub,2013-11-06 14:22:00,
2013-11-06 09:27:00,55.2,47.1,30.41,WNW,294,0.0,0.0,74,0.00,,,0.01,meteohub,2013-11-06 14:27:00,
2013-11-06 09:32:00,55.4,47.7,30.41,WNW,294,0.0,0.0,75,0.00,,,0.01,meteohub,2013-11-06 14:32:00,
2013-11-06 09:37:00,55.6,47.5,30.41,WNW,294,0.0,0.0,74,0.00,,,0.01,meteohub,2013-11-06 14:37:00,
2013-11-06 09:42:00,55.9,47.1,30.41,WNW,294,0.0,0.0,72,0.00,,,0.01,meteohub,2013-11-06 14:42:00,
2013-11-06 09:47:00,56.3,47.5,30.41,WNW,294,0.0,0.0,72,0.00,,,0.01,meteohub,2013-11-06 14:47:00,
2013-11-06 09:52:00,56.5,47.1,30.40,WNW,294,0.0,0.0,71,0.00,,,0.01,meteohub,2013-11-06 14:52:00,
2013-11-06 09:57:00,56.5,47.1,30.41,WNW,294,0.0,0.0,71,0.00,,,0.01,meteohub,2013-11-06 14:57:00,
2013-11-06 10:02:00,56.5,47.1,30.40,WNW,294,0.0,0.0,71,0.00,,,0.01,meteohub,2013-11-06 15:02:00,
2013-11-06 10:07:00,56.1,47.7,30.40,WNW,294,0.0,0.0,73,0.00,,,0.01,meteohub,2013-11-06 15:07:00,
2013-11-06 10:12:00,56.7,47.7,30.40,WNW,294,0.0,0.0,72,0.00,,,0.01,meteohub,2013-11-06 15:12:00,
2013-11-06 10:17:00,57.2,48.2,30.39,WNW,294,0.0,0.0,72,0.00,,,0.01,meteohub,2013-11-06 15:17:00,
2013-11-06 10:22:00,57.9,48.2,30.39,WNW,294,0.0,0.0,70,0.00,,,0.01,meteohub,2013-11-06 15:22:00,
2013-11-06 10:27:00,58.3,48.6,30.39,WNW,294,0.0,0.0,70,0.00,,,0.01,meteohub,2013-11-06 15:27:00,
2013-11-06 10:32:00,58.6,48.2,30.39,WNW,294,0.0,0.0,68,0.00,,,0.01,meteohub,2013-11-06 15:32:00,
2013-11-06 10:37:00,58.5,48.0,30.39,WNW,294,0.0,0.0,68,0.00,,,0.01,meteohub,2013-11-06 15:37:00,
2013-11-06 10:42:00,58.5,48.0,30.39,WNW,294,0.0,0.0,68,0.00,,,0.01,meteohub,2013-11-06 15:42:00,
2013-11-06 10:47:00,58.1,47.1,30.39,WNW,294,0.0,0.0,67,0.00,,,0.01,meteohub,2013-11-06 15:47:00,
2013-11-06 10:52:00,58.1,48.4,30.39,WNW,294,0.0,0.0,70,0.00,,,0.01,meteohub,2013-11-06 15:52:00,
2013-11-06 10:57:00,58.5,48.4,30.39,WNW,294,0.0,0.0,69,0.00,,,0.01,meteohub,2013-11-06 15:57:00,
2013-11-06 11:02:00,58.8,47.8,30.38,WNW,294,0.0,0.0,67,0.00,,,0.01,meteohub,2013-11-06 16:02:00,
2013-11-06 11:07:00,59.0,47.3,30.38,WNW,294,0.0,0.0,65,0.00,,,0.01,meteohub,2013-11-06 16:07:00,
2013-11-06 11:12:00,58.6,47.3,30.38,WNW,294,0.0,0.0,66,0.00,,,0.01,meteohub,2013-11-06 16:12:00,
2013-11-06 11:17:00,58.5,47.1,30.37,WNW,294,0.0,0.0,66,0.00,,,0.01,meteohub,2013-11-06 16:17:00,
2013-11-06 11:22:00,59.0,46.8,30.37,WNW,294,0.0,0.0,64,0.00,,,0.01,meteohub,2013-11-06 16:22:00,
2013-11-06 11:27:00,59.4,46.8,30.37,WNW,294,0.0,0.0,63,0.00,,,0.01,meteohub,2013-11-06 16:27:00,
2013-11-06 11:32:00,59.5,46.9,30.36,WNW,294,0.0,0.0,63,0.00,,,0.01,meteohub,2013-11-06 16:32:00,
2013-11-06 11:37:00,59.7,48.0,30.36,WNW,294,0.0,0.0,65,0.00,,,0.01,meteohub,2013-11-06 16:37:00,
2013-11-06 11:42:00,60.1,47.8,30.35,WNW,294,0.0,0.0,64,0.00,,,0.01,meteohub,2013-11-06 16:42:00,
2013-11-06 11:47:00,60.4,46.9,30.35,WNW,294,0.0,0.0,61,0.00,,,0.01,meteohub,2013-11-06 16:47:00,
2013-11-06 11:52:00,60.4,46.0,30.35,WNW,294,0.0,0.0,59,0.00,,,0.01,meteohub,2013-11-06 16:52:00,
2013-11-06 11:57:00,60.4,46.9,30.34,WNW,294,0.0,0.0,61,0.00,,,0.01,meteohub,2013-11-06 16:57:00,
2013-11-06 12:02:00,60.4,46.0,30.34,WNW,294,0.0,0.0,59,0.00,,,0.01,meteohub,2013-11-06 17:02:00,
2013-11-06 12:07:00,60.4,46.0,30.34,WNW,294,0.0,0.0,59,0.00,,,0.01,meteohub,2013-11-06 17:07:00,
2013-11-06 12:12:00,60.4,46.0,30.33,WNW,294,0.0,0.0,59,0.00,,,0.01,meteohub,2013-11-06 17:12:00,
2013-11-06 12:17:00,61.0,46.6,30.33,WNW,294,0.0,0.0,59,0.00,,,0.01,meteohub,2013-11-06 17:17:00,
2013-11-06 12:22:00,61.0,46.6,30.32,WNW,294,0.0,0.0,59,0.00,,,0.01,meteohub,2013-11-06 17:22:00,
2013-11-06 12:27:00,61.0,46.6,30.32,WNW,294,0.0,0.0,59,0.00,,,0.01,meteohub,2013-11-06 17:27:00,
2013-11-06 12:32:00,61.2,47.1,30.31,WNW,294,0.0,0.0,60,0.00,,,0.01,meteohub,2013-11-06 17:32:00,
2013-11-06 12:37:00,61.5,46.6,30.31,WNW,294,0.0,0.0,58,0.00,,,0.01,meteohub,2013-11-06 17:37:00,
2013-11-06 12:42:00,61.2,47.1,30.31,WNW,294,0.0,0.0,60,0.00,,,0.01,meteohub,2013-11-06 17:42:00,
2013-11-06 12:47:00,61.2,47.7,30.30,WNW,294,0.0,0.0,61,0.00,,,0.01,meteohub,2013-11-06 17:47:00,
2013-11-06 12:52:00,61.3,46.9,30.30,WNW,294,0.0,0.0,59,0.00,,,0.01,meteohub,2013-11-06 17:52:00,
2013-11-06 12:57:00,61.3,46.9,30.30,WNW,294,0.0,0.0,59,0.00,,,0.01,meteohub,2013-11-06 17:57:00,
2013-11-06 13:02:00,61.2,47.1,30.30,WNW,294,0.0,0.0,60,0.00,,,0.01,meteohub,2013-11-06 18:02:00,
2013-11-06 13:07:00,61.2,47.1,30.30,WNW,294,0.0,0.0,60,0.00,,,0.01,meteohub,2013-11-06 18:07:00,
2013-11-06 13:12:00,61.3,47.8,30.29,WNW,294,0.0,0.0,61,0.00,,,0.01,meteohub,2013-11-06 18:12:00,
2013-11-06 13:17:00,61.5,47.1,30.29,WNW,294,0.0,0.0,59,0.00,,,0.01,meteohub,2013-11-06 18:17:00,
2013-11-06 13:22:00,61.5,47.1,30.29,WNW,294,0.0,0.0,59,0.00,,,0.01,meteohub,2013-11-06 18:22:00,
2013-11-06 13:27:00,61.9,46.9,30.28,WNW,294,0.0,0.0,58,0.00,,,0.01,meteohub,2013-11-06 18:27:00,
2013-11-06 13:32:00,61.3,46.0,30.28,WNW,294,0.0,0.0,57,0.00,,,0.01,meteohub,2013-11-06 18:32:00,
2013-11-06 13:37:00,61.2,46.8,30.29,WNW,294,0.0,0.0,59,0.00,,,0.01,meteohub,2013-11-06 18:37:00,
2013-11-06 13:42:00,61.3,46.0,30.29,WNW,294,0.0,0.0,57,0.00,,,0.01,meteohub,2013-11-06 18:42:00,
2013-11-06 13:47:00,61.3,46.0,30.28,WNW,294,0.0,0.0,57,0.00,,,0.01,meteohub,2013-11-06 18:47:00,
2013-11-06 13:52:00,61.2,45.9,30.28,WNW,294,0.0,0.0,57,0.00,,,0.01,meteohub,2013-11-06 18:52:00,
2013-11-06 13:57:00,60.4,46.0,30.28,WNW,294,0.0,0.0,59,0.00,,,0.01,meteohub,2013-11-06 18:57:00,
2013-11-06 14:02:00,60.4,46.9,30.28,WNW,294,0.0,0.0,61,0.00,,,0.01,meteohub,2013-11-06 19:02:00,
2013-11-06 14:07:00,60.8,46.8,30.28,WNW,294,0.0,0.0,60,0.00,,,0.01,meteohub,2013-11-06 19:07:00,
2013-11-06 14:12:00,61.3,47.3,30.28,WNW,294,0.0,0.0,60,0.00,,,0.01,meteohub,2013-11-06 19:12:00,
2013-11-06 14:17:00,61.9,46.4,30.27,WNW,294,0.0,0.0,57,0.00,,,0.01,meteohub,2013-11-06 19:17:00,
2013-11-06 14:22:00,62.2,46.8,30.27,WNW,294,0.0,0.0,57,0.00,,,0.01,meteohub,2013-11-06 19:22:00,
2013-11-06 14:27:00,62.1,47.1,30.27,WNW,294,0.0,0.0,58,0.00,,,0.01,meteohub,2013-11-06 19:27:00,
2013-11-06 14:32:00,61.9,47.8,30.27,WNW,294,0.0,0.0,60,0.00,,,0.01,meteohub,2013-11-06 19:32:00,
2013-11-06 14:37:00,61.3,47.3,30.27,WNW,294,0.0,0.0,60,0.00,,,0.01,meteohub,2013-11-06 19:37:00,
2013-11-06 14:42:00,61.2,48.4,30.27,WNW,294,0.0,0.0,63,0.00,,,0.01,meteohub,2013-11-06 19:42:00,
2013-11-06 14:47:00,60.6,48.4,30.26,WNW,294,0.0,0.0,64,0.00,,,0.01,meteohub,2013-11-06 19:47:00,
2013-11-06 14:52:00,60.3,48.4,30.26,WNW,294,0.0,0.0,65,0.00,,,0.01,meteohub,2013-11-06 19:52:00,
2013-11-06 14:57:00,60.1,48.2,30.26,WNW,294,0.0,0.0,65,0.00,,,0.01,meteohub,2013-11-06 19:57:00,
2013-11-06 15:02:00,59.9,48.6,30.26,WNW,294,0.0,0.0,66,0.00,,,0.01,meteohub,2013-11-06 20:02:00,
2013-11-06 15:07:00,59.7,48.7,30.26,WNW,294,0.0,0.0,67,0.00,,,0.01,meteohub,2013-11-06 20:07:00,
2013-11-06 15:12:00,59.5,48.9,30.26,WNW,294,0.0,0.0,68,0.00,,,0.01,meteohub,2013-11-06 20:12:00,
2013-11-06 15:17:00,59.4,48.7,30.26,WNW,294,0.0,0.0,68,0.00,,,0.01,meteohub,2013-11-06 20:17:00,
2013-11-06 15:22:00,59.2,49.1,30.27,WNW,294,0.0,0.0,69,0.00,,,0.01,meteohub,2013-11-06 20:22:00,
2013-11-06 15:27:00,59.0,49.3,30.27,WNW,294,0.0,0.0,70,0.00,,,0.01,meteohub,2013-11-06 20:27:00,
2013-11-06 15:32:00,58.8,49.1,30.27,WNW,294,0.0,0.0,70,0.00,,,0.01,meteohub,2013-11-06 20:32:00,
2013-11-06 15:37:00,58.6,48.9,30.26,WNW,294,0.0,0.0,70,0.00,,,0.01,meteohub,2013-11-06 20:37:00,
2013-11-06 15:42:00,58.6,48.9,30.26,WNW,294,0.0,0.0,70,0.00,,,0.01,meteohub,2013-11-06 20:42:00,
2013-11-06 15:47:00,58.5,49.1,30.26,WNW,294,0.0,0.0,71,0.00,,,0.01,meteohub,2013-11-06 20:47:00,
2013-11-06 15:52:00,58.5,49.8,30.26,WNW,294,0.0,0.0,73,0.00,,,0.01,meteohub,2013-11-06 20:52:00,
2013-11-06 15:57:00,58.3,50.0,30.26,WNW,294,0.0,0.0,74,0.00,,,0.01,meteohub,2013-11-06 20:57:00,
2013-11-06 16:02:00,58.3,50.4,30.27,WNW,294,0.0,0.0,75,0.00,,,0.01,meteohub,2013-11-06 21:02:00,
2013-11-06 16:07:00,58.1,50.2,30.26,WNW,294,0.0,0.0,75,0.00,,,0.01,meteohub,2013-11-06 21:07:00,
2013-11-06 16:12:00,57.9,50.4,30.26,WNW,294,0.0,0.0,76,0.00,,,0.01,meteohub,2013-11-06 21:12:00,
2013-11-06 16:17:00,57.7,50.2,30.25,WNW,294,0.0,0.0,76,0.00,,,0.01,meteohub,2013-11-06 21:17:00,
2013-11-06 16:22:00,57.7,50.2,30.25,WNW,294,0.0,0.0,76,0.00,,,0.01,meteohub,2013-11-06 21:22:00,
2013-11-06 16:27:00,57.6,50.0,30.25,WNW,294,0.0,0.0,76,0.00,,,0.01,meteohub,2013-11-06 21:27:00,
2013-11-06 16:32:00,57.6,50.4,30.25,WNW,294,0.0,0.0,77,0.00,,,0.01,meteohub,2013-11-06 21:32:00,
2013-11-06 16:37:00,57.4,50.2,30.25,WNW,294,0.0,0.0,77,0.00,,,0.01,meteohub,2013-11-06 21:37:00,
2013-11-06 16:42:00,57.4,50.2,30.25,WNW,294,0.0,0.0,77,0.00,,,0.01,meteohub,2013-11-06 21:42:00,
2013-11-06 16:47:00,57.2,50.4,30.25,WNW,294,0.0,0.0,78,0.00,,,0.01,meteohub,2013-11-06 21:47:00,
2013-11-06 16:52:00,57.0,50.2,30.25,WNW,294,0.0,0.0,78,0.00,,,0.01,meteohub,2013-11-06 21:52:00,
2013-11-06 16:57:00,56.8,50.4,30.24,WNW,294,0.0,0.0,79,0.00,,,0.01,meteohub,2013-11-06 21:57:00,
2013-11-06 17:02:00,56.8,50.4,30.24,WNW,294,0.0,0.0,79,0.00,,,0.01,meteohub,2013-11-06 22:02:00,
2013-11-06 17:07:00,56.7,50.2,30.24,WNW,294,0.0,0.0,79,0.00,,,0.01,meteohub,2013-11-06 22:07:00,
2013-11-06 17:12:00,56.5,50.4,30.24,WNW,294,0.0,0.0,80,0.00,,,0.01,meteohub,2013-11-06 22:12:00,
2013-11-06 17:17:00,56.5,50.7,30.24,WNW,294,0.0,0.0,81,0.00,,,0.01,meteohub,2013-11-06 22:17:00,
2013-11-06 17:22:00,56.1,50.4,30.23,WNW,294,0.0,0.0,81,0.00,,,0.01,meteohub,2013-11-06 22:22:00,
2013-11-06 17:27:00,55.9,50.5,30.23,WNW,294,0.0,0.0,82,0.00,,,0.01,meteohub,2013-11-06 22:27:00,
2013-11-06 17:32:00,55.8,50.4,30.23,WNW,294,0.0,0.0,82,0.00,,,0.01,meteohub,2013-11-06 22:32:00,
2013-11-06 17:37:00,55.6,50.5,30.23,WNW,294,0.0,0.0,83,0.00,,,0.01,meteohub,2013-11-06 22:37:00,
2013-11-06 17:42:00,55.2,50.2,30.23,WNW,294,0.0,0.0,83,0.00,,,0.01,meteohub,2013-11-06 22:42:00,
2013-11-06 17:47:00,55.0,50.4,30.23,WNW,294,0.0,0.0,84,0.00,,,0.01,meteohub,2013-11-06 22:47:00,
2013-11-06 17:52:00,54.9,50.2,30.23,WNW,294,0.0,0.0,84,0.00,,,0.01,meteohub,2013-11-06 22:52:00,
2013-11-06 17:57:00,54.7,50.0,30.23,WNW,294,0.0,0.0,84,0.00,,,0.01,meteohub,2013-11-06 22:57:00,
2013-11-06 18:02:00,54.3,49.8,30.23,WNW,294,0.0,0.0,85,0.00,,,0.01,meteohub,2013-11-06 23:02:00,
2013-11-06 18:07:00,54.1,49.8,30.22,WNW,294,0.0,0.0,85,0.00,,,0.01,meteohub,2013-11-06 23:07:00,
2013-11-06 18:12:00,54.0,49.8,30.23,WNW,294,0.0,0.0,86,0.00,,,0.01,meteohub,2013-11-06 23:12:00,
2013-11-06 18:17:00,53.8,50.0,30.22,WNW,294,0.0,0.0,87,0.00,,,0.01,meteohub,2013-11-06 23:17:00,
2013-11-06 18:22:00,53.6,49.8,30.23,WNW,294,0.0,0.0,87,0.00,,,0.01,meteohub,2013-11-06 23:22:00,
2013-11-06 18:27:00,53.4,49.6,30.23,WNW,294,0.0,0.0,87,0.00,,,0.01,meteohub,2013-11-06 23:27:00,
2013-11-06 18:32:00,53.4,49.6,30.22,WNW,294,0.0,0.0,87,0.00,,,0.01,meteohub,2013-11-06 23:32:00,
2013-11-06 18:37:00,53.2,49.8,30.22,WNW,294,0.0,0.0,88,0.00,,,0.01,meteohub,2013-11-06 23:37:00,
2013-11-06 18:42:00,53.2,49.8,30.22,WNW,294,0.0,0.0,88,0.00,,,0.01,meteohub,2013-11-06 23:42:00,
2013-11-06 18:47:00,53.2,49.8,30.22,WNW,294,0.0,0.0,88,0.00,,,0.01,meteohub,2013-11-06 23:47:00,
2013-11-06 18:52:00,53.2,50.0,30.21,WNW,294,0.0,0.0,89,0.00,,,0.01,meteohub,2013-11-06 23:52:00,
2013-11-06 18:57:00,53.1,49.8,30.21,WNW,294,0.0,0.0,89,0.00,,,0.01,meteohub,2013-11-06 23:57:00,
2013-11-06 19:02:00,53.1,49.8,30.21,WNW,294,0.0,0.0,89,0.00,,,0.01,meteohub,2013-11-07 00:02:00,
2013-11-06 19:07:00,53.1,49.8,30.20,WNW,294,0.0,0.0,89,0.00,,,0.00,meteohub,2013-11-07 00:07:00,
2013-11-06 19:12:00,53.1,50.2,30.20,WNW,294,0.0,0.0,90,0.00,,,0.00,meteohub,2013-11-07 00:12:00,
2013-11-06 19:17:00,53.1,50.2,30.19,WNW,294,0.0,0.0,90,0.00,,,0.00,meteohub,2013-11-07 00:17:00,
2013-11-06 19:22:00,53.1,50.5,30.19,WNW,294,0.0,0.0,91,0.00,,,0.00,meteohub,2013-11-07 00:22:00,
2013-11-06 19:27:00,53.1,50.5,30.19,WNW,294,0.0,0.0,91,0.00,,,0.00,meteohub,2013-11-07 00:27:00,
2013-11-06 19:32:00,53.1,50.5,30.19,WNW,294,0.0,0.0,91,0.00,,,0.00,meteohub,2013-11-07 00:32:00,
2013-11-06 19:37:00,53.1,50.7,30.19,WNW,294,0.0,0.0,92,0.00,,,0.00,meteohub,2013-11-07 00:37:00,
2013-11-06 19:42:00,53.1,50.7,30.19,WNW,294,0.0,0.0,92,0.00,,,0.00,meteohub,2013-11-07 00:42:00,
2013-11-06 19:47:00,53.1,50.7,30.18,WNW,294,0.0,0.0,92,0.00,,,0.00,meteohub,2013-11-07 00:47:00,
2013-11-06 19:52:00,53.1,50.7,30.18,WNW,294,0.0,0.0,92,0.00,,,0.00,meteohub,2013-11-07 00:52:00,
2013-11-06 19:57:00,52.9,50.5,30.18,WNW,294,0.0,0.0,92,0.00,,,0.00,meteohub,2013-11-07 00:57:00,
2013-11-06 20:02:00,52.9,50.5,30.18,WNW,294,0.0,0.0,92,0.00,,,0.00,meteohub,2013-11-07 01:02:00,
2013-11-06 20:07:00,52.9,50.9,30.18,WNW,294,0.0,0.0,93,0.00,,,0.00,meteohub,2013-11-07 01:07:00,
2013-11-06 20:12:00,52.9,50.9,30.18,WNW,294,0.0,0.0,93,0.00,,,0.00,meteohub,2013-11-07 01:12:00,
2013-11-06 20:17:00,52.7,50.4,30.18,WNW,294,0.0,0.0,92,0.00,,,0.00,meteohub,2013-11-07 01:17:00,
2013-11-06 20:22:00,52.7,50.7,30.17,WNW,294,0.0,0.0,93,0.00,,,0.00,meteohub,2013-11-07 01:22:00,
2013-11-06 20:27:00,52.7,51.1,30.17,WNW,294,0.0,0.0,94,0.00,,,0.00,meteohub,2013-11-07 01:27:00,
2013-11-06 20:32:00,52.5,50.5,30.17,WNW,294,0.0,0.0,93,0.00,,,0.00,meteohub,2013-11-07 01:32:00,
2013-11-06 20:37:00,52.5,50.9,30.17,WNW,294,0.0,0.0,94,0.00,,,0.00,meteohub,2013-11-07 01:37:00,
2013-11-06 20:42:00,52.5,50.5,30.17,WNW,294,0.0,0.0,93,0.00,,,0.00,meteohub,2013-11-07 01:42:00,
2013-11-06 20:47:00,52.5,50.5,30.17,WNW,294,0.0,0.0,93,0.00,,,0.00,meteohub,2013-11-07 01:47:00,
2013-11-06 20:52:00,52.5,50.5,30.17,WNW,294,0.0,0.0,93,0.00,,,0.00,meteohub,2013-11-07 01:52:00,
2013-11-06 20:57:00,52.3,50.4,30.16,WNW,294,0.0,0.0,93,0.00,,,0.00,meteohub,2013-11-07 01:57:00,
2013-11-06 21:02:00,52.3,50.4,30.16,WNW,294,0.0,0.0,93,0.00,,,0.00,meteohub,2013-11-07 02:02:00,
2013-11-06 21:07:00,52.2,50.5,30.16,WNW,294,0.0,0.0,94,0.00,,,0.00,meteohub,2013-11-07 02:07:00,
2013-11-06 21:12:00,52.0,50.4,30.16,WNW,294,0.0,0.0,94,0.00,,,0.00,meteohub,2013-11-07 02:12:00,
2013-11-06 21:17:00,52.0,50.4,30.16,WNW,294,0.0,0.0,94,0.00,,,0.00,meteohub,2013-11-07 02:17:00,
2013-11-06 21:22:00,52.0,50.4,30.16,WNW,294,0.0,0.0,94,0.00,,,0.00,meteohub,2013-11-07 02:22:00,
2013-11-06 21:27:00,52.0,50.4,30.16,WNW,294,0.0,0.0,94,0.00,,,0.00,meteohub,2013-11-07 02:27:00,
2013-11-06 21:32:00,52.0,50.4,30.16,WNW,294,0.0,0.0,94,0.00,,,0.00,meteohub,2013-11-07 02:32:00,
2013-11-06 21:37:00,52.0,50.5,30.15,WNW,294,0.0,0.0,95,0.00,,,0.00,meteohub,2013-11-07 02:37:00,
2013-11-06 21:42:00,52.0,50.5,30.15,WNW,294,0.0,0.0,95,0.00,,,0.00,meteohub,2013-11-07 02:42:00,
2013-11-06 21:47:00,52.0,50.5,30.15,WNW,294,0.0,0.0,95,0.00,,,0.00,meteohub,2013-11-07 02:47:00,
2013-11-06 21:52:00,52.2,50.7,30.15,WNW,294,0.0,0.0,95,0.00,,,0.00,meteohub,2013-11-07 02:52:00,
2013-11-06 21:57:00,52.2,50.7,30.15,WNW,294,0.0,0.0,95,0.00,,,0.00,meteohub,2013-11-07 02:57:00,
2013-11-06 22:02:00,52.2,50.7,30.14,WNW,294,0.0,0.0,95,0.00,,,0.00,meteohub,2013-11-07 03:02:00,
2013-11-06 22:07:00,52.2,50.7,30.14,WNW,294,0.0,0.0,95,0.00,,,0.00,meteohub,2013-11-07 03:07:00,
2013-11-06 22:12:00,52.3,51.3,30.14,WNW,294,0.0,0.0,96,0.00,,,0.00,meteohub,2013-11-07 03:12:00,
2013-11-06 22:18:00,52.3,50.9,30.13,WNW,294,0.0,0.0,95,0.00,,,0.00,meteohub,2013-11-07 03:18:00,
2013-11-06 22:23:00,52.5,51.1,30.13,WNW,294,0.0,0.0,95,0.00,,,0.00,meteohub,2013-11-07 03:23:00,
2013-11-06 22:28:00,52.3,50.9,30.13,WNW,294,0.0,0.0,95,0.00,,,0.00,meteohub,2013-11-07 03:28:00,
2013-11-06 22:33:00,52.5,51.4,30.12,WNW,294,0.0,0.0,96,0.00,,,0.00,meteohub,2013-11-07 03:33:00,
2013-11-06 22:38:00,52.5,51.4,30.12,WNW,294,0.0,0.0,96,0.00,,,0.00,meteohub,2013-11-07 03:38:00,
2013-11-06 22:44:00,52.7,51.6,30.12,WNW,294,0.0,0.0,96,0.00,,,0.00,meteohub,2013-11-07 03:44:00,
2013-11-06 22:49:00,52.9,51.8,30.12,WNW,294,0.0,0.0,96,0.01,,,0.01,meteohub,2013-11-07 03:49:00,
2013-11-06 22:54:00,53.1,52.2,30.12,WNW,294,0.0,0.0,97,0.01,,,0.01,meteohub,2013-11-07 03:54:00,
2013-11-06 22:59:00,53.2,52.3,30.12,WNW,294,0.0,0.0,97,0.01,,,0.01,meteohub,2013-11-07 03:59:00,
2013-11-06 23:04:00,53.6,52.7,30.11,WNW,294,0.0,0.0,97,0.01,,,0.01,meteohub,2013-11-07 04:04:00,
2013-11-06 23:09:00,54.0,53.1,30.11,WNW,294,0.0,0.0,97,0.01,,,0.01,meteohub,2013-11-07 04:09:00,
2013-11-06 23:14:00,54.1,53.2,30.11,WNW,294,0.0,0.0,97,0.01,,,0.01,meteohub,2013-11-07 04:14:00,
2013-11-06 23:20:00,54.3,53.4,30.10,WNW,294,0.0,0.0,97,0.01,,,0.01,meteohub,2013-11-07 04:20:00,
2013-11-06 23:25:00,54.5,53.6,30.10,WNW,294,0.0,0.0,97,0.01,,,0.01,meteohub,2013-11-07 04:25:00,
2013-11-06 23:30:00,54.9,53.8,30.10,WNW,294,0.0,0.0,96,0.01,,,0.01,meteohub,2013-11-07 04:30:00,
2013-11-06 23:35:00,54.9,53.8,30.09,WNW,294,0.0,0.0,96,0.01,,,0.01,meteohub,2013-11-07 04:35:00,
2013-11-06 23:40:00,54.9,53.8,30.09,WNW,294,0.0,0.0,96,0.01,,,0.01,meteohub,2013-11-07 04:40:00,
2013-11-06 23:45:00,55.0,54.0,30.09,WNW,294,0.0,0.0,96,0.00,,,0.01,meteohub,2013-11-07 04:45:00,
2013-11-06 23:51:00,55.2,54.1,30.09,WNW,294,0.0,0.0,96,0.00,,,0.01,meteohub,2013-11-07 04:51:00,
2013-11-06 23:56:00,55.2,54.1,30.09,WNW,294,0.0,0.0,96,0.00,,,0.01,meteohub,2013-11-07 04:56:00,